Time;durP1;ratioP1;P1;durP2;ratioP2;P2;SDS_P1;SDS_P2;PMS_P1;PMS_P2;Temp;Humidity;BMP_temperature;BMP_pressure;BME280_temperature;BME280_humidity;BME280_pressure;Samples;Min_cycle;Max_cycle;Signal;HPM_P1;HPM_P2
2023/01/23 00:00:23;;;;;;;10.88;8.55;;;15.90;46.40;;;;;;5016658;28;20255;-58
2023/01/23 00:02:50;;;;;;;10.55;8.75;;;15.90;46.50;;;;;;5016539;28;20525;-58
2023/01/23 00:05:17;;;;;;;9.57;8.55;;;15.90;46.50;;;;;;5016373;28;20765;-58
2023/01/23 00:07:44;;;;;;;11.30;8.77;;;15.80;46.50;;;;;;5016538;28;20216;-58
2023/01/23 00:10:11;;;;;;;10.75;8.85;;;15.80;46.40;;;;;;5015317;28;20201;-58
2023/01/23 00:12:41;;;;;;;9.93;8.60;;;15.80;46.50;;;;;;5017487;28;20220;-58
2023/01/23 00:15:11;;;;;;;10.90;8.63;;;15.80;46.40;;;;;;5032739;28;20220;-58
2023/01/23 00:17:39;;;;;;;9.60;8.27;;;15.70;46.40;;;;;;5026587;28;20221;-58
2023/01/23 00:20:07;;;;;;;10.15;8.70;;;15.70;46.50;;;;;;5016474;28;20224;-58
2023/01/23 00:22:34;;;;;;;9.75;8.45;;;15.70;46.50;;;;;;5016331;28;20193;-58
2023/01/23 00:25:01;;;;;;;10.10;8.65;;;15.70;46.50;;;;;;5016361;28;20235;-57
2023/01/23 00:27:28;;;;;;;9.77;8.70;;;15.70;46.40;;;;;;5016014;28;20213;-58
2023/01/23 00:29:55;;;;;;;9.13;7.80;;;15.60;46.40;;;;;;5014456;28;20197;-57
2023/01/23 00:32:23;;;;;;;9.52;8.48;;;15.60;46.40;;;;;;5015903;28;20729;-58
2023/01/23 00:34:50;;;;;;;9.07;7.90;;;15.60;46.50;;;;;;5014493;28;20312;-58
2023/01/23 00:37:17;;;;;;;9.98;8.25;;;15.60;46.60;;;;;;5014326;28;20774;-58
2023/01/23 00:39:45;;;;;;;9.38;8.38;;;15.60;46.60;;;;;;5014240;28;20287;-58
2023/01/23 00:42:12;;;;;;;9.10;8.15;;;15.60;46.60;;;;;;5014102;28;20307;-58
2023/01/23 00:44:39;;;;;;;8.98;8.05;;;15.50;46.50;;;;;;5013073;28;20627;-57
2023/01/23 00:47:07;;;;;;;8.65;7.75;;;15.60;46.50;;;;;;5015099;28;20284;-58
2023/01/23 00:49:36;;;;;;;8.95;7.72;;;15.50;46.50;;;;;;5015724;28;20189;-58
2023/01/23 00:52:03;;;;;;;9.00;7.97;;;15.50;46.50;;;;;;5015339;28;20189;-58
2023/01/23 00:54:30;;;;;;;9.52;7.93;;;15.50;46.50;;;;;;5015179;28;20204;-58
2023/01/23 00:56:57;;;;;;;9.02;7.80;;;15.50;46.50;;;;;;5013921;28;20227;-58
2023/01/23 00:59:24;;;;;;;9.15;8.00;;;15.50;47.20;;;;;;5013742;28;20725;-58
2023/01/23 01:01:52;;;;;;;8.63;7.72;;;15.50;46.50;;;;;;5014933;28;20644;-57
2023/01/23 01:04:19;;;;;;;10.13;7.90;;;15.50;46.60;;;;;;5013655;28;20662;-58
2023/01/23 01:06:47;;;;;;;9.38;8.13;;;15.40;46.50;;;;;;5013557;28;20304;-58
2023/01/23 01:09:15;;;;;;;7.90;7.10;;;15.40;46.50;;;;;;5013588;28;20224;-58
2023/01/23 01:11:44;;;;;;;8.82;7.93;;;15.40;46.40;;;;;;5013431;28;20208;-58
2023/01/23 01:14:11;;;;;;;8.48;7.57;;;15.40;46.40;;;;;;5014889;28;20236;-58
2023/01/23 01:16:43;;;;;;;8.57;7.68;;;15.40;46.50;;;;;;5013303;28;20703;-58
2023/01/23 01:19:10;;;;;;;7.97;7.13;;;15.30;46.50;;;;;;5013334;28;20717;-58
2023/01/23 01:21:37;;;;;;;9.85;7.80;;;15.30;46.50;;;;;;5013155;28;20311;-58
2023/01/23 01:24:07;;;;;;;8.40;7.45;;;15.30;46.50;;;;;;5013676;28;20295;-58
2023/01/23 01:26:34;;;;;;;8.05;7.05;;;15.30;46.50;;;;;;5013331;28;20269;-57
2023/01/23 01:29:01;;;;;;;8.02;7.22;;;15.30;46.70;;;;;;5013117;28;20201;-57
2023/01/23 01:31:28;;;;;;;7.78;6.82;;;15.30;46.50;;;;;;5014476;28;20573;-58
2023/01/23 01:33:55;;;;;;;7.75;6.53;;;15.30;46.50;;;;;;5014398;28;20279;-57
2023/01/23 01:36:23;;;;;;;7.28;6.55;;;15.30;46.50;;;;;;5014489;28;20196;-58
2023/01/23 01:38:50;;;;;;;7.85;7.00;;;15.30;46.50;;;;;;5014213;28;20255;-58
2023/01/23 01:41:19;;;;;;;7.38;6.68;;;15.30;47.20;;;;;;5012862;28;20312;-58
2023/01/23 01:43:46;;;;;;;8.65;6.65;;;15.20;46.50;;;;;;5013007;28;20200;-58
2023/01/23 01:46:18;;;;;;;7.65;6.85;;;15.20;46.40;;;;;;5012804;28;20258;-58
2023/01/23 01:48:50;;;;;;;7.55;6.75;;;15.20;46.40;;;;;;5012994;28;20638;-58
2023/01/23 01:51:20;;;;;;;7.22;6.53;;;15.20;46.60;;;;;;5012841;28;20239;-57
2023/01/23 01:53:49;;;;;;;7.20;6.50;;;15.20;46.60;;;;;;5014052;28;20193;-58
2023/01/23 01:56:16;;;;;;;7.78;6.88;;;15.20;46.40;;;;;;5013581;28;20658;-58
2023/01/23 01:58:46;;;;;;;7.63;6.75;;;15.20;46.40;;;;;;5012663;28;20670;-57
2023/01/23 02:01:13;;;;;;;7.53;6.47;;;15.20;46.40;;;;;;5012469;28;20710;-58
2023/01/23 02:03:40;;;;;;;7.90;6.28;;;15.20;46.60;;;;;;5012661;28;20548;-58
2023/01/23 02:06:07;;;;;;;7.15;6.47;;;15.20;46.60;;;;;;5140815;23;20239;-63
2023/01/23 02:08:37;;;;;;;7.03;6.32;;;15.20;46.40;;;;;;5036876;28;20184;-62
2023/01/23 02:11:05;;;;;;;6.93;6.32;;;15.10;46.60;;;;;;5033193;28;20192;-62
2023/01/23 02:13:34;;;;;;;7.32;6.38;;;15.10;46.60;;;;;;5033024;28;20713;-62
2023/01/23 02:16:05;;;;;;;6.72;5.95;;;15.10;46.70;;;;;;5033098;28;20196;-62
2023/01/23 02:18:32;;;;;;;6.65;6.00;;;15.10;46.70;;;;;;5034080;28;20173;-62
2023/01/23 02:21:01;;;;;;;7.32;6.45;;;15.10;46.90;;;;;;5032638;28;20247;-62
2023/01/23 02:23:33;;;;;;;6.90;5.93;;;15.10;46.80;;;;;;5034286;28;20303;-62
2023/01/23 02:26:03;;;;;;;6.20;5.60;;;15.10;46.80;;;;;;5033979;28;20605;-62
2023/01/23 02:28:37;;;;;;;7.13;6.30;;;15.00;46.70;;;;;;5039945;28;20207;-67
2023/01/23 02:31:04;;;;;;;7.07;6.38;;;15.10;46.80;;;;;;5040940;28;20189;-63
2023/01/23 02:33:47;;;;;;;6.68;5.95;;;15.00;46.80;;;;;;5032757;28;20227;-62
2023/01/23 02:36:16;;;;;;;6.70;6.00;;;15.00;46.80;;;;;;5033101;28;20535;-63
2023/01/23 02:38:49;;;;;;;6.65;6.00;;;15.00;46.80;;;;;;5033209;28;20200;-63
2023/01/23 02:41:18;;;;;;;7.07;5.85;;;15.00;46.80;;;;;;5032027;28;20290;-62
2023/01/23 02:43:46;;;;;;;7.38;6.68;;;15.00;46.80;;;;;;5032030;28;20697;-62
2023/01/23 02:46:14;;;;;;;6.90;6.20;;;15.00;46.90;;;;;;5032023;28;20196;-62
2023/01/23 02:48:46;;;;;;;6.85;6.22;;;15.00;46.90;;;;;;5032021;28;20242;-62
2023/01/23 02:51:13;;;;;;;6.95;6.25;;;14.90;46.80;;;;;;5032103;28;20184;-62
2023/01/23 02:53:41;;;;;;;6.38;5.78;;;14.90;46.80;;;;;;5032431;28;20223;-62
2023/01/23 02:56:08;;;;;;;6.05;5.45;;;14.90;46.70;;;;;;5032074;28;20199;-62
2023/01/23 03:01:21;;;;;;;6.50;5.78;;;14.90;46.80;;;;;;5033063;28;20196;-62
2023/01/23 03:03:50;;;;;;;6.18;5.57;;;14.90;46.80;;;;;;5031686;28;20653;-62
2023/01/23 03:06:18;;;;;;;7.07;6.38;;;14.90;46.80;;;;;;5031811;28;20262;-62
2023/01/23 03:08:48;;;;;;;5.75;5.25;;;14.90;46.80;;;;;;5033752;28;20249;-62
2023/01/23 03:11:16;;;;;;;6.28;5.68;;;14.90;46.80;;;;;;5035809;28;20192;-62
2023/01/23 03:13:45;;;;;;;5.88;5.13;;;14.90;46.80;;;;;;5036253;28;20227;-62
2023/01/23 03:16:13;;;;;;;6.07;5.53;;;14.90;46.90;;;;;;5035831;28;20202;-62
2023/01/23 03:18:40;;;;;;;6.68;6.07;;;14.90;46.90;;;;;;5035636;28;20551;-62
2023/01/23 03:21:07;;;;;;;6.28;5.68;;;14.80;46.80;;;;;;5035666;28;20299;-63
2023/01/23 03:23:35;;;;;;;5.80;5.20;;;14.80;46.90;;;;;;5036916;28;20208;-62
2023/01/23 03:26:02;;;;;;;6.63;5.72;;;14.80;46.90;;;;;;5035775;28;20625;-62
2023/01/23 03:31:17;;;;;;;5.95;5.40;;;14.80;46.90;;;;;;5035900;28;20266;-62
2023/01/23 03:33:44;;;;;;;6.40;5.80;;;14.80;46.80;;;;;;5035395;28;20211;-62
2023/01/23 03:36:13;;;;;;;6.68;5.97;;;14.80;46.90;;;;;;5035490;28;20670;-62
2023/01/23 03:41:23;;;;;;;5.90;5.30;;;14.80;46.80;;;;;;5035401;28;20192;-62
2023/01/23 03:41:29;;;;;;;5.90;5.30;;;14.80;47.00;;;;;;5035141;28;20212;-61
2023/01/23 03:44:01;;;;;;;6.05;5.47;;;14.80;46.90;;;;;;5035568;28;20215;-62
2023/01/23 03:46:29;;;;;;;7.03;5.85;;;14.80;46.90;;;;;;5035112;28;20302;-62
2023/01/23 03:48:57;;;;;;;5.95;5.35;;;14.80;46.90;;;;;;5036405;28;20189;-62
2023/01/23 03:51:24;;;;;;;5.70;5.18;;;14.70;46.80;;;;;;5035682;28;20642;-62
2023/01/23 03:53:51;;;;;;;6.13;5.53;;;14.70;46.80;;;;;;5034898;28;20216;-63
2023/01/23 03:56:19;;;;;;;6.05;5.53;;;14.80;46.90;;;;;;5035047;28;20696;-63
2023/01/23 03:58:46;;;;;;;5.90;5.30;;;14.70;46.70;;;;;;5035246;28;20204;-62
2023/01/23 04:01:13;;;;;;;5.50;5.00;;;14.70;46.80;;;;;;5034627;28;20200;-62
2023/01/23 04:03:44;;;;;;;5.45;4.68;;;14.70;46.70;;;;;;5035371;28;20224;-62
2023/01/23 04:06:11;;;;;;;6.65;5.60;;;14.70;46.70;;;;;;5034687;28;20586;-62
2023/01/23 04:08:38;;;;;;;6.22;5.43;;;14.70;46.70;;;;;;5034715;28;20207;-63
2023/01/23 04:11:07;;;;;;;6.20;5.60;;;14.70;46.80;;;;;;5034698;28;20567;-62
2023/01/23 04:13:35;;;;;;;5.53;5.05;;;14.70;47.00;;;;;;5035297;28;20765;-64
2023/01/23 04:16:02;;;;;;;6.15;5.40;;;14.70;47.30;;;;;;5034911;28;20204;-63
2023/01/23 04:18:30;;;;;;;5.70;5.20;;;14.70;47.40;;;;;;5034708;28;20199;-62
2023/01/23 04:20:58;;;;;;;5.13;4.65;;;14.70;47.40;;;;;;5034243;28;20196;-62
2023/01/23 04:23:25;;;;;;;5.80;5.20;;;14.70;47.40;;;;;;5034313;28;20247;-62
2023/01/23 04:25:53;;;;;;;5.45;4.95;;;14.70;47.40;;;;;;5034324;28;20243;-62
2023/01/23 04:28:21;;;;;;;5.90;5.32;;;14.70;47.40;;;;;;5034220;28;20662;-62
2023/01/23 04:30:49;;;;;;;5.30;4.78;;;14.70;47.40;;;;;;5034950;28;20250;-63
2023/01/23 04:33:23;;;;;;;5.35;4.85;;;14.70;47.40;;;;;;5034168;28;20262;-62
2023/01/23 04:35:54;;;;;;;5.30;4.80;;;14.70;47.40;;;;;;5034007;28;20196;-62
2023/01/23 04:38:22;;;;;;;6.38;5.25;;;14.80;47.40;;;;;;5034116;28;20204;-62
2023/01/23 04:40:49;;;;;;;5.50;5.00;;;14.80;47.50;;;;;;5034142;28;20208;-62
2023/01/23 04:43:18;;;;;;;5.22;4.72;;;14.80;47.30;;;;;;5034386;28;20731;-63
2023/01/23 04:45:52;;;;;;;5.40;4.90;;;14.90;47.20;;;;;;5034301;28;20670;-62
2023/01/23 04:48:38;;;;;;;5.40;4.90;;;14.90;47.20;;;;;;5035338;28;20307;-62
2023/01/23 04:51:05;;;;;;;5.07;4.57;;;14.90;47.10;;;;;;5034081;28;20630;-63
2023/01/23 04:53:33;;;;;;;5.50;5.00;;;14.90;47.00;;;;;;5033774;28;20661;-62
2023/01/23 04:56:03;;;;;;;5.55;5.05;;;14.90;47.10;;;;;;5035667;28;20219;-62
2023/01/23 04:58:30;;;;;;;5.03;4.53;;;15.00;47.10;;;;;;5033733;28;20200;-63
2023/01/23 05:01:03;;;;;;;5.45;4.95;;;15.00;47.00;;;;;;5033780;28;20281;-62
2023/01/23 05:03:33;;;;;;;5.00;4.60;;;15.00;47.00;;;;;;5033725;28;20234;-64
2023/01/23 05:06:01;;;;;;;4.97;4.45;;;15.00;46.70;;;;;;5035216;28;20200;-62
2023/01/23 05:08:28;;;;;;;5.13;4.63;;;15.00;46.80;;;;;;5033891;28;20283;-63
2023/01/23 05:11:11;;;;;;;5.30;4.80;;;15.00;46.70;;;;;;5033669;28;20202;-63
2023/01/23 05:13:39;;;;;;;5.07;4.68;;;15.00;46.60;;;;;;5033379;28;20227;-62
2023/01/23 05:16:08;;;;;;;4.70;4.30;;;14.90;46.50;;;;;;5033389;28;20271;-63
2023/01/23 05:18:55;;;;;;;5.40;4.60;;;15.00;46.50;;;;;;5034527;28;20621;-63
2023/01/23 05:21:22;;;;;;;5.18;4.70;;;15.00;46.20;;;;;;5033164;28;20196;-63
2023/01/23 05:23:49;;;;;;;5.20;4.78;;;15.00;46.40;;;;;;5033611;28;20219;-63
2023/01/23 05:26:19;;;;;;;5.63;5.13;;;15.10;46.90;;;;;;5033889;28;20231;-63
2023/01/23 05:28:46;;;;;;;6.20;5.50;;;15.10;47.10;;;;;;5034728;28;20250;-62
2023/01/23 05:31:14;;;;;;;5.50;5.00;;;15.10;47.50;;;;;;5032805;28;20666;-62
2023/01/23 05:33:50;;;;;;;5.57;5.07;;;15.10;47.40;;;;;;5033504;28;20243;-63
2023/01/23 05:36:17;;;;;;;5.13;4.65;;;15.20;47.70;;;;;;5034710;28;20204;-63
2023/01/23 05:38:44;;;;;;;5.45;4.95;;;15.20;47.90;;;;;;5033551;28;20280;-62
2023/01/23 05:41:12;;;;;;;5.20;4.70;;;15.20;47.90;;;;;;5034577;28;20202;-63
2023/01/23 05:44:09;;;;;;;6.03;5.43;;;15.30;47.50;;;;;;5033604;28;20220;-63
2023/01/23 05:46:47;;;;;;;5.80;5.20;;;15.30;47.00;;;;;;5033528;28;20279;-63
2023/01/23 05:49:14;;;;;;;5.65;4.97;;;15.30;47.00;;;;;;5033182;28;20234;-63
2023/01/23 05:51:41;;;;;;;5.32;4.82;;;15.30;46.80;;;;;;5033701;28;20193;-63
2023/01/23 05:54:09;;;;;;;5.75;5.25;;;15.40;47.50;;;;;;5033066;28;20622;-62
2023/01/23 05:56:37;;;;;;;5.20;4.70;;;15.40;46.60;;;;;;5033180;28;20203;-62
2023/01/23 05:59:32;;;;;;;5.53;5.03;;;15.40;47.50;;;;;;5033954;28;20199;-63
2023/01/23 06:02:13;;;;;;;6.43;5.03;;;15.40;46.00;;;;;;5034076;28;20578;-63
2023/01/23 06:05:18;;;;;;;5.28;4.78;;;15.40;45.80;;;;;;5032062;28;20200;-62
2023/01/23 06:07:59;;;;;;;5.57;5.03;;;15.40;45.70;;;;;;5015434;28;20230;-62
2023/01/23 06:10:26;;;;;;;5.18;4.78;;;15.40;45.80;;;;;;5024003;28;20214;-62
2023/01/23 06:12:53;;;;;;;5.68;5.18;;;15.40;45.80;;;;;;5032921;28;20266;-62
2023/01/23 06:15:21;;;;;;;5.25;4.68;;;15.40;45.80;;;;;;5032793;28;20195;-63
2023/01/23 06:17:51;;;;;;;5.43;4.90;;;15.40;45.60;;;;;;5033180;28;20199;-62
2023/01/23 06:20:19;;;;;;;5.03;4.55;;;15.40;45.50;;;;;;5032455;28;20708;-62
2023/01/23 06:22:46;;;;;;;5.53;5.03;;;15.40;45.60;;;;;;5032236;28;20219;-63
2023/01/23 06:25:14;;;;;;;5.13;4.63;;;15.40;45.60;;;;;;5032302;28;20290;-62
2023/01/23 06:27:42;;;;;;;5.38;4.88;;;15.40;45.70;;;;;;5032172;28;20259;-62
2023/01/23 06:30:10;;;;;;;5.80;5.18;;;15.40;45.60;;;;;;5032408;28;20196;-63
2023/01/23 06:32:45;;;;;;;5.25;4.75;;;15.40;45.70;;;;;;5032273;28;20721;-63
2023/01/23 06:35:16;;;;;;;5.82;5.25;;;15.40;45.50;;;;;;5032758;28;20239;-62
2023/01/23 06:37:44;;;;;;;5.30;4.80;;;15.50;45.70;;;;;;5031998;28;20674;-63
2023/01/23 06:40:16;;;;;;;6.22;5.13;;;15.50;45.60;;;;;;5032392;28;20198;-62
2023/01/23 06:42:54;;;;;;;5.63;4.70;;;15.50;45.80;;;;;;5031444;28;20208;-65
2023/01/23 06:45:21;;;;;;;5.47;4.97;;;15.50;46.00;;;;;;5032142;28;20586;-63
2023/01/23 06:47:51;;;;;;;5.55;5.05;;;15.50;45.70;;;;;;5032356;28;20546;-66
2023/01/23 06:50:19;;;;;;;7.20;4.65;;;15.50;45.50;;;;;;5032974;28;20194;-66
2023/01/23 06:52:46;;;;;;;5.20;4.70;;;15.50;45.40;;;;;;5033834;28;20188;-64
2023/01/23 06:55:13;;;;;;;5.57;5.00;;;15.50;45.50;;;;;;5032268;28;20192;-66
2023/01/23 06:57:40;;;;;;;5.20;4.70;;;15.50;45.50;;;;;;5031888;28;20200;-67
2023/01/23 07:00:11;;;;;;;5.47;4.97;;;15.50;45.50;;;;;;5032084;28;20222;-64
2023/01/23 07:02:39;;;;;;;4.88;4.47;;;15.50;45.60;;;;;;5031999;28;20231;-62
2023/01/23 07:05:09;;;;;;;4.88;4.47;;;15.50;45.60;;;;;;5032079;28;20228;-67
2023/01/23 07:07:36;;;;;;;5.53;5.03;;;15.50;45.50;;;;;;5032241;28;20200;-63
2023/01/23 07:10:03;;;;;;;5.10;4.60;;;15.60;45.60;;;;;;5032495;28;20204;-65
2023/01/23 07:12:30;;;;;;;5.55;4.95;;;15.50;45.60;;;;;;5033368;28;20250;-64
2023/01/23 07:14:57;;;;;;;4.75;4.35;;;15.50;45.50;;;;;;5033079;28;20224;-66
2023/01/23 07:17:32;;;;;;;5.55;5.03;;;15.50;45.50;;;;;;5032640;28;20210;-65
2023/01/23 07:19:59;;;;;;;5.38;4.88;;;15.60;45.70;;;;;;5032271;28;20573;-65
2023/01/23 07:22:28;;;;;;;5.07;4.63;;;15.60;45.70;;;;;;5032042;28;20244;-65
2023/01/23 07:24:55;;;;;;;4.75;4.13;;;15.50;45.50;;;;;;5033241;28;20215;-65
2023/01/23 07:27:22;;;;;;;5.28;4.78;;;15.60;45.60;;;;;;5031486;28;20196;-66
2023/01/23 07:29:49;;;;;;;5.10;4.60;;;15.60;45.60;;;;;;5033118;28;20680;-62
2023/01/23 07:32:16;;;;;;;4.80;4.40;;;15.60;45.50;;;;;;5031799;28;20196;-66
2023/01/23 07:34:43;;;;;;;4.60;4.20;;;15.50;45.50;;;;;;5033224;28;20204;-64
2023/01/23 07:37:12;;;;;;;4.97;4.53;;;15.60;45.70;;;;;;5031375;28;20200;-64
2023/01/23 07:39:40;;;;;;;4.85;4.38;;;15.60;45.60;;;;;;5033143;28;20188;-64
2023/01/23 07:42:07;;;;;;;5.30;4.80;;;15.60;45.60;;;;;;5032932;28;20654;-63
2023/01/23 07:44:34;;;;;;;5.05;4.60;;;15.60;45.50;;;;;;5033080;28;20215;-63
2023/01/23 07:47:01;;;;;;;5.57;4.78;;;15.60;45.60;;;;;;5031849;28;20196;-63
2023/01/23 07:49:28;;;;;;;5.78;4.65;;;15.60;45.50;;;;;;5031676;28;20195;-64
2023/01/23 07:51:56;;;;;;;5.13;4.63;;;15.60;45.50;;;;;;5031533;28;20197;-63
2023/01/23 07:54:23;;;;;;;5.45;4.95;;;15.70;45.70;;;;;;5032375;28;20239;-63
2023/01/23 07:56:52;;;;;;;5.60;4.82;;;15.60;45.50;;;;;;5036692;28;20736;-63
2023/01/23 07:59:19;;;;;;;5.53;5.03;;;15.60;45.70;;;;;;5036481;28;20628;-63
2023/01/23 08:01:47;;;;;;;5.05;4.55;;;15.70;45.70;;;;;;5036343;28;20238;-63
2023/01/23 08:04:14;;;;;;;5.15;4.70;;;15.70;45.60;;;;;;5034857;28;20235;-63
2023/01/23 08:06:42;;;;;;;5.10;4.60;;;15.70;45.50;;;;;;5034875;28;20207;-63
2023/01/23 08:09:09;;;;;;;5.18;4.68;;;15.70;45.70;;;;;;5036076;28;20195;-63
2023/01/23 08:11:36;;;;;;;4.90;4.50;;;15.70;45.50;;;;;;5036295;28;20192;-63
2023/01/23 08:14:05;;;;;;;5.13;4.63;;;15.60;45.50;;;;;;5035804;28;20216;-63
2023/01/23 08:16:32;;;;;;;4.40;4.00;;;15.70;45.70;;;;;;5035958;28;20254;-63
2023/01/23 08:18:59;;;;;;;5.15;4.68;;;15.70;45.50;;;;;;5034836;28;20200;-64
2023/01/23 08:21:26;;;;;;;5.78;5.18;;;15.70;45.60;;;;;;5034602;28;20211;-63
2023/01/23 08:23:53;;;;;;;6.38;4.85;;;15.70;45.50;;;;;;5035706;28;20220;-63
2023/01/23 08:26:20;;;;;;;5.30;4.80;;;15.70;45.60;;;;;;5036215;28;20654;-63
2023/01/23 08:28:48;;;;;;;5.40;4.90;;;15.70;45.50;;;;;;5035642;28;20203;-63
2023/01/23 08:31:16;;;;;;;5.15;4.70;;;15.80;45.80;;;;;;5035593;28;20242;-63
2023/01/23 08:33:43;;;;;;;5.50;5.00;;;15.80;45.80;;;;;;5035525;28;20208;-63
2023/01/23 08:36:11;;;;;;;5.32;4.82;;;15.80;45.60;;;;;;5035945;28;20192;-64
2023/01/23 08:38:40;;;;;;;5.40;4.90;;;15.80;45.60;;;;;;5035809;28;20196;-63
2023/01/23 08:41:08;;;;;;;5.60;5.03;;;15.80;45.50;;;;;;5035517;28;20192;-63
2023/01/23 08:43:35;;;;;;;5.30;4.80;;;15.80;45.60;;;;;;5034110;28;20793;-63
2023/01/23 08:46:02;;;;;;;5.00;4.50;;;15.80;45.30;;;;;;5034340;28;20207;-63
2023/01/23 08:48:32;;;;;;;4.82;4.00;;;15.80;45.40;;;;;;5034229;28;20574;-63
2023/01/23 08:51:01;;;;;;;5.00;4.60;;;15.80;45.60;;;;;;5034142;28;20274;-64
2023/01/23 08:53:28;;;;;;;4.88;4.38;;;15.90;45.40;;;;;;5034102;28;20216;-62
2023/01/23 08:55:59;;;;;;;5.50;5.00;;;15.80;45.40;;;;;;5034420;28;20642;-64
2023/01/23 08:58:26;;;;;;;4.93;4.40;;;15.90;45.30;;;;;;5034042;28;20200;-63
2023/01/23 09:00:53;;;;;;;4.40;4.00;;;16.00;45.40;;;;;;5034673;28;20204;-65
2023/01/23 09:03:20;;;;;;;5.25;4.53;;;16.00;45.20;;;;;;5035349;28;20690;-65
2023/01/23 09:05:48;;;;;;;5.55;4.93;;;16.00;45.00;;;;;;5033521;28;20684;-64
2023/01/23 09:08:15;;;;;;;4.95;4.45;;;16.00;45.00;;;;;;5034067;28;20195;-63
2023/01/23 09:10:42;;;;;;;4.75;4.35;;;16.00;44.90;;;;;;5033872;28;20196;-63
2023/01/23 09:13:09;;;;;;;5.22;4.75;;;16.00;45.00;;;;;;5033722;28;20247;-63
2023/01/23 09:15:37;;;;;;;5.10;4.60;;;16.10;45.00;;;;;;5033455;28;20600;-64
2023/01/23 09:18:06;;;;;;;5.13;4.43;;;16.10;45.10;;;;;;5035169;28;20275;-64
2023/01/23 09:20:33;;;;;;;5.28;4.78;;;16.20;45.00;;;;;;5033604;28;20200;-64
2023/01/23 09:23:02;;;;;;;4.80;4.30;;;16.20;44.90;;;;;;5034584;28;20208;-64
2023/01/23 09:25:30;;;;;;;4.85;4.45;;;16.20;44.90;;;;;;5033359;28;20204;-64
2023/01/23 09:27:57;;;;;;;4.75;4.25;;;16.20;44.70;;;;;;5034497;28;20215;-64
2023/01/23 09:30:24;;;;;;;5.40;4.90;;;16.20;44.70;;;;;;5034601;28;20198;-64
2023/01/23 09:32:52;;;;;;;4.65;4.15;;;16.20;44.50;;;;;;5034833;28;20214;-64
2023/01/23 09:35:22;;;;;;;4.43;4.03;;;16.30;44.90;;;;;;5034456;28;20227;-64
2023/01/23 09:38:00;;;;;;;4.57;4.18;;;16.20;44.60;;;;;;5033347;28;20299;-64
2023/01/23 09:40:30;;;;;;;4.28;3.78;;;16.20;44.70;;;;;;5034568;28;20309;-63
2023/01/23 09:43:00;;;;;;;4.75;4.35;;;16.20;44.60;;;;;;5034352;28;20216;-63
2023/01/23 09:45:27;;;;;;;4.85;4.45;;;16.20;44.60;;;;;;5032898;28;20196;-64
2023/01/23 09:47:57;;;;;;;4.13;3.72;;;16.20;44.30;;;;;;5034399;28;20185;-64
2023/01/23 09:50:25;;;;;;;4.28;3.88;;;16.30;44.50;;;;;;5034284;28;20561;-64
2023/01/23 09:52:55;;;;;;;4.57;4.18;;;16.30;44.50;;;;;;5032741;28;20378;-64
2023/01/23 09:55:24;;;;;;;5.00;4.50;;;16.20;45.00;;;;;;5032719;28;20196;-63
2023/01/23 09:57:53;;;;;;;4.03;3.63;;;16.20;44.10;;;;;;5032920;28;20204;-64
2023/01/23 10:00:24;;;;;;;4.40;4.05;;;16.30;44.10;;;;;;5032829;28;20615;-63
2023/01/23 10:02:52;;;;;;;4.43;4.03;;;16.30;44.20;;;;;;5034185;28;20186;-64
2023/01/23 10:05:22;;;;;;;4.68;4.28;;;16.30;44.60;;;;;;5033751;28;20235;-64
2023/01/23 10:07:56;;;;;;;4.00;3.60;;;16.30;44.40;;;;;;5033210;28;20200;-63
2023/01/23 10:10:50;;;;;;;4.40;4.00;;;16.30;44.50;;;;;;5034157;28;20180;-63
2023/01/23 10:13:19;;;;;;;4.10;3.70;;;16.30;44.30;;;;;;5031627;28;20224;-62
2023/01/23 10:16:18;;;;;;;4.40;4.00;;;16.30;44.30;;;;;;5033923;28;20238;-62
2023/01/23 10:18:53;;;;;;;4.40;4.00;;;16.30;44.10;;;;;;5032116;28;20200;-64
2023/01/23 10:21:24;;;;;;;4.35;3.95;;;16.30;44.10;;;;;;5033708;28;20190;-64
2023/01/23 10:23:58;;;;;;;4.53;4.13;;;16.40;44.30;;;;;;5032689;28;20227;-64
2023/01/23 10:26:28;;;;;;;4.35;3.95;;;16.40;44.00;;;;;;5032568;28;20199;-64
2023/01/23 10:28:59;;;;;;;4.15;3.75;;;16.40;44.20;;;;;;5034322;28;20551;-64
2023/01/23 10:31:33;;;;;;;4.25;3.85;;;16.40;44.20;;;;;;5032444;28;20196;-64
2023/01/23 10:34:05;;;;;;;4.65;4.10;;;16.50;44.10;;;;;;5032069;28;20222;-63
2023/01/23 10:36:35;;;;;;;4.20;3.90;;;16.50;44.40;;;;;;5033483;28;20246;-62
2023/01/23 10:39:04;;;;;;;4.97;4.57;;;16.50;43.90;;;;;;5032019;28;20235;-62
2023/01/23 10:41:30;;;;;;;4.53;4.13;;;16.50;44.00;;;;;;5032005;28;20291;-62
2023/01/23 10:43:59;;;;;;;4.65;4.25;;;16.50;44.20;;;;;;5032259;28;20610;-63
2023/01/23 10:46:29;;;;;;;4.15;3.80;;;16.50;43.90;;;;;;5032362;28;20192;-63
2023/01/23 10:48:56;;;;;;;4.55;4.15;;;16.50;44.10;;;;;;5033585;28;20610;-63
2023/01/23 10:51:34;;;;;;;4.63;4.07;;;16.50;44.00;;;;;;5033375;28;20195;-63
2023/01/23 10:54:06;;;;;;;4.72;4.32;;;16.50;44.30;;;;;;5032081;28;20221;-63
2023/01/23 10:56:34;;;;;;;5.28;4.78;;;16.50;43.80;;;;;;5033201;28;20279;-62
2023/01/23 10:59:04;;;;;;;4.50;4.10;;;16.50;43.80;;;;;;5032221;28;20200;-63
2023/01/23 11:01:32;;;;;;;4.72;4.32;;;16.50;44.40;;;;;;5031935;28;20666;-63
2023/01/23 11:04:09;;;;;;;4.47;4.07;;;16.50;44.10;;;;;;5031924;28;20580;-63
2023/01/23 11:06:36;;;;;;;4.30;3.83;;;16.50;44.00;;;;;;5031925;28;20306;-64
2023/01/23 11:09:04;;;;;;;4.93;4.40;;;16.50;44.50;;;;;;5033209;28;20196;-62
2023/01/23 11:11:32;;;;;;;4.78;4.38;;;16.50;44.30;;;;;;5031927;28;20251;-63
2023/01/23 11:14:06;;;;;;;4.93;4.35;;;16.50;44.10;;;;;;5033539;28;20208;-63
2023/01/23 11:16:34;;;;;;;3.90;3.50;;;16.60;44.00;;;;;;5032059;28;20278;-63
2023/01/23 11:19:16;;;;;;;4.60;4.10;;;16.60;44.30;;;;;;5032287;28;20250;-63
2023/01/23 11:21:51;;;;;;;5.00;4.50;;;16.50;44.20;;;;;;5033365;28;20211;-63
2023/01/23 11:24:19;;;;;;;4.63;4.18;;;16.60;43.90;;;;;;5031635;28;20310;-62
2023/01/23 11:26:47;;;;;;;4.53;4.13;;;16.60;43.90;;;;;;5033402;28;20192;-63
2023/01/23 11:29:22;;;;;;;4.85;4.43;;;16.60;44.10;;;;;;5032506;28;20212;-63
2023/01/23 11:31:50;;;;;;;4.60;4.20;;;16.60;44.00;;;;;;5035867;28;20227;-63
2023/01/23 11:34:17;;;;;;;4.60;4.20;;;16.60;44.00;;;;;;5036012;28;20220;-63
2023/01/23 11:36:47;;;;;;;4.60;4.20;;;16.60;44.10;;;;;;5035777;28;20235;-63
2023/01/23 11:39:22;;;;;;;4.90;4.40;;;16.60;44.00;;;;;;5035888;28;20570;-62
2023/01/23 11:41:49;;;;;;;4.97;4.25;;;16.60;43.60;;;;;;5036350;28;20675;-62
2023/01/23 11:44:17;;;;;;;4.95;4.35;;;16.60;44.10;;;;;;5036362;28;20219;-63
2023/01/23 11:47:17;;;;;;;5.03;4.53;;;16.70;43.90;;;;;;5036879;28;20214;-63
2023/01/23 11:49:59;;;;;;;5.22;4.72;;;16.70;43.90;;;;;;5031369;28;20208;-62
2023/01/23 11:52:30;;;;;;;5.18;4.57;;;16.60;43.80;;;;;;5037442;28;20255;-63
2023/01/23 11:55:11;;;;;;;5.40;4.90;;;16.70;44.10;;;;;;5036029;28;20348;-63
2023/01/23 11:57:42;;;;;;;5.10;4.60;;;16.60;43.90;;;;;;5037071;28;20554;-63
2023/01/23 12:00:20;;;;;;;5.47;4.97;;;16.70;44.40;;;;;;5037492;28;20190;-63
2023/01/23 12:03:20;;;;;;;6.60;5.13;;;16.70;44.10;;;;;;5036218;28;20254;-64
2023/01/23 12:08:43;;;;;;;4.72;4.32;;;16.60;44.00;;;;;;5090669;27;20544;-57
2023/01/23 12:11:15;;;;;;;4.80;4.40;;;16.70;44.20;;;;;;5090621;28;20276;-57
2023/01/23 12:13:56;;;;;;;4.78;4.28;;;16.70;44.10;;;;;;5090610;28;20720;-57
2023/01/23 12:16:26;;;;;;;5.10;4.60;;;16.70;44.10;;;;;;5090555;28;20261;-57
2023/01/23 12:19:07;;;;;;;4.55;4.15;;;16.70;44.00;;;;;;5090797;28;20178;-57
2023/01/23 12:21:37;;;;;;;4.60;4.20;;;16.70;44.30;;;;;;5090664;28;20261;-57
2023/01/23 12:24:13;;;;;;;6.22;5.63;;;16.70;44.20;;;;;;5088996;28;20582;-57
2023/01/23 12:26:46;;;;;;;6.22;5.63;;;16.70;43.60;;;;;;5088973;28;20753;-56
2023/01/23 12:29:51;;;;;;;4.72;4.22;;;16.70;43.40;;;;;;5089246;28;20198;-56
2023/01/23 12:32:40;;;;;;;5.72;5.22;;;16.70;44.20;;;;;;5090207;28;20206;-56
2023/01/23 12:35:16;;;;;;;5.55;5.05;;;16.80;43.90;;;;;;5090225;28;20202;-56
2023/01/23 12:37:58;;;;;;;5.68;5.10;;;16.80;43.10;;;;;;5090431;28;20208;-56
2023/01/23 12:40:28;;;;;;;5.30;4.53;;;16.90;43.30;;;;;;5090139;28;20696;-56
2023/01/23 12:42:58;;;;;;;5.30;4.80;;;16.90;43.90;;;;;;5089880;28;20760;-57
2023/01/23 12:45:26;;;;;;;5.68;4.82;;;16.90;43.70;;;;;;5089841;28;20198;-56
2023/01/23 12:47:57;;;;;;;5.45;4.95;;;17.00;43.40;;;;;;5089847;28;20653;-56
2023/01/23 12:50:27;;;;;;;5.72;5.03;;;17.00;43.30;;;;;;5090022;28;20534;-57
2023/01/23 12:52:57;;;;;;;5.43;4.93;;;17.00;43.70;;;;;;5089894;28;20201;-57
2023/01/23 12:55:26;;;;;;;4.78;4.38;;;17.00;43.00;;;;;;5089949;28;20612;-56
2023/01/23 12:57:55;;;;;;;6.10;5.50;;;17.00;43.40;;;;;;5088433;28;20198;-56
2023/01/23 13:00:36;;;;;;;4.68;4.25;;;17.10;43.10;;;;;;5089740;28;20221;-57
2023/01/23 13:03:14;;;;;;;4.88;4.47;;;17.00;43.40;;;;;;5088725;28;20324;-57
2023/01/23 13:05:45;;;;;;;5.00;4.60;;;17.10;43.50;;;;;;5088279;28;20200;-57
2023/01/23 13:08:17;;;;;;;5.05;4.38;;;17.10;43.50;;;;;;5088155;28;20788;-57